createdAt,value
2022-11-12T00:00:42.676Z,-23332.00
2022-11-12T00:02:45.375Z,-23330.88
2022-11-12T00:04:47.972Z,-23329.63
2022-11-12T00:06:50.592Z,-23328.81
2022-11-12T00:08:53.272Z,-23328.34
2022-11-12T00:10:57.238Z,-23327.72
2022-11-12T00:13:00.227Z,-23329.47
2022-11-12T00:15:03.199Z,-23330.25
2022-11-12T00:17:05.826Z,-23331.38
2022-11-12T00:19:08.538Z,-23331.84
2022-11-12T00:21:11.139Z,-23333.44
2022-11-12T00:23:13.784Z,-23336.47
2022-11-12T00:25:16.574Z,-23333.75
2022-11-12T00:27:20.788Z,-23337.09
2022-11-12T00:29:23.416Z,-23333.59
2022-11-12T00:31:26.111Z,-23335.34
2022-11-12T00:33:28.757Z,-23333.13
2022-11-12T00:35:32.615Z,-23333.13
2022-11-12T00:37:35.239Z,-23335.34
2022-11-12T00:39:37.865Z,-23333.91
2022-11-12T00:41:40.535Z,-23333.28
2022-11-12T00:43:44.498Z,-23333.91
2022-11-12T00:45:47.125Z,-23333.75
2022-11-12T00:47:49.992Z,-23334.25
2022-11-12T00:49:52.677Z,-23335.97
2022-11-12T00:51:55.296Z,-23337.25
2022-11-12T00:53:58.056Z,-23339.16
2022-11-12T00:56:01.980Z,-23338.69
2022-11-12T00:58:04.668Z,-23337.25
2022-11-12T01:00:15.890Z,-23334.06
2022-11-12T01:02:19.978Z,-23333.75
2022-11-12T01:04:22.583Z,-23330.25
2022-11-12T01:06:26.101Z,-23329.47
2022-11-12T01:08:30.608Z,-23331.84
2022-11-12T01:10:33.420Z,-23330.41
2022-11-12T01:12:36.063Z,-23334.25
2022-11-12T01:14:38.819Z,-23332.00
2022-11-12T01:16:43.307Z,-23327.38
2022-11-12T01:18:45.898Z,-23316.56
2022-11-12T01:20:48.572Z,-23308.28
2022-11-12T01:22:51.253Z,-23300.81
2022-11-12T01:24:53.839Z,-23301.44
2022-11-12T01:26:56.459Z,-23295.88
2022-11-12T01:28:59.531Z,-23295.53
2022-11-12T01:31:11.652Z,-23298.41
2022-11-12T01:33:15.634Z,-23304.94
2022-11-12T01:35:18.411Z,-23308.28
2022-11-12T01:37:21.060Z,-23307.00
2022-11-12T01:39:23.754Z,-23302.72
2022-11-12T01:41:28.664Z,-23293.94
2022-11-12T01:43:31.303Z,-23296.50
2022-11-12T01:45:33.885Z,-23293.63
2022-11-12T01:47:36.517Z,-23295.22
2022-11-12T01:49:50.457Z,-23290.13
2022-11-12T01:51:59.761Z,-23293.94
2022-11-12T01:54:06.441Z,-23293.31
2022-11-12T01:56:09.126Z,-23295.22
2022-11-12T01:58:14.775Z,-23296.19
2022-11-12T02:00:18.529Z,-23295.88
2022-11-12T02:02:21.195Z,-23296.97
2022-11-12T02:04:26.337Z,-23297.78
2022-11-12T02:06:31.473Z,-23295.88
2022-11-12T02:08:35.003Z,-23294.09
2022-11-12T02:10:39.765Z,-23294.91
2022-11-12T02:13:00.470Z,-23294.44
2022-11-12T02:15:04.561Z,-23293.00
2022-11-12T02:17:07.311Z,-23293.16
2022-11-12T02:19:12.788Z,-23291.88
2022-11-12T02:21:15.370Z,-23292.69
2022-11-12T02:23:19.368Z,-23293.94
2022-11-12T02:25:25.486Z,-23295.22
2022-11-12T02:27:28.706Z,-23298.09
2022-11-12T02:29:31.417Z,-23298.41
2022-11-12T02:31:34.419Z,-23296.03
2022-11-12T02:33:37.000Z,-23292.03
2022-11-12T02:35:39.706Z,-23288.22
2022-11-12T02:37:42.317Z,-23287.75
2022-11-12T02:39:46.229Z,-23285.03
2022-11-12T02:41:48.827Z,-23282.47
2022-11-12T02:43:51.415Z,-23280.56
2022-11-12T02:45:54.091Z,-23278.19
2022-11-12T02:47:56.721Z,-23278.97
2022-11-12T02:49:59.287Z,-23281.53
2022-11-12T02:52:01.901Z,-23284.72
2022-11-12T02:54:04.792Z,-23280.88
2022-11-12T02:56:09.136Z,-23288.22
2022-11-12T02:58:11.788Z,-23282.16
2022-11-12T03:00:15.107Z,-23279.94
2022-11-12T03:02:17.722Z,-23275.47
2022-11-12T03:04:20.314Z,-23270.84
2022-11-12T03:06:23.131Z,-23268.78
2022-11-12T03:08:26.530Z,-23265.91
2022-11-12T03:10:29.920Z,-23266.53
2022-11-12T03:12:34.104Z,-23263.03
2022-11-12T03:14:36.803Z,-23262.72
2022-11-12T03:16:39.391Z,-23264.00
2022-11-12T03:18:41.994Z,-23259.84
2022-11-12T03:20:44.570Z,-23258.25
2022-11-12T03:22:57.012Z,-23260.31
2022-11-12T03:24:59.715Z,-23260.66
2022-11-12T03:27:02.336Z,-23260.97
2022-11-12T03:29:06.448Z,-23263.03
2022-11-12T03:31:11.867Z,-23265.91
2022-11-12T03:33:15.758Z,-23264.78
2022-11-12T03:35:18.415Z,-23260.97
2022-11-12T03:37:21.059Z,-23260.81
2022-11-12T03:39:23.690Z,-23258.25
2022-11-12T03:41:26.327Z,-23256.00
2022-11-12T03:43:29.056Z,-23255.88
2022-11-12T03:45:33.004Z,-23252.66
2022-11-12T03:47:35.780Z,-23254.09
2022-11-12T03:49:38.362Z,-23251.41
2022-11-12T03:51:40.996Z,-23249.00
2022-11-12T03:53:43.588Z,-23248.69
2022-11-12T03:55:46.376Z,-23245.34
2022-11-12T03:57:49.943Z,-23241.97
2022-11-12T03:59:52.577Z,-23245.50
2022-11-12T04:01:56.568Z,-23245.81
2022-11-12T04:03:59.164Z,-23250.75
2022-11-12T04:06:19.017Z,-23247.09
2022-11-12T04:08:38.403Z,-23245.81
2022-11-12T04:10:41.029Z,-23246.44
2022-11-12T04:13:00.922Z,-23247.25
2022-11-12T04:15:03.698Z,-23249.00
2022-11-12T04:17:25.139Z,-23248.38
2022-11-12T04:19:45.509Z,-23247.09
2022-11-12T04:21:54.732Z,-23249.00
2022-11-12T04:23:57.467Z,-23247.09
2022-11-12T04:26:18.007Z,-23248.03
2022-11-12T04:28:20.659Z,-23251.88
2022-11-12T04:30:22.270Z,-23252.81
2022-11-12T04:32:26.685Z,-23256.50
2022-11-12T04:34:32.003Z,-23256.97
2022-11-12T04:36:34.613Z,-23257.63
2022-11-12T04:38:37.231Z,-23257.63
2022-11-12T04:41:05.738Z,-23259.22
2022-11-12T04:43:28.682Z,-23261.75
2022-11-12T04:45:31.322Z,-23258.88
2022-11-12T04:47:37.070Z,-23255.69
2022-11-12T04:49:39.679Z,-23256.66
2022-11-12T04:51:59.807Z,-23255.06
2022-11-12T04:54:02.421Z,-23254.09
2022-11-12T04:56:05.558Z,-23253.47
2022-11-12T04:58:08.199Z,-23255.69
2022-11-12T05:00:12.755Z,-23253.16
2022-11-12T05:02:15.443Z,-23254.09
2022-11-12T05:04:19.550Z,-23259.53
2022-11-12T05:06:39.639Z,-23261.59
2022-11-12T05:08:42.306Z,-23257.28
2022-11-12T05:10:45.519Z,-23257.63
2022-11-12T05:12:48.128Z,-23259.84
2022-11-12T05:14:50.690Z,-23261.13
2022-11-12T05:16:53.436Z,-23262.22
2022-11-12T05:18:56.042Z,-23265.09
2022-11-12T05:21:19.937Z,-23266.53
2022-11-12T05:23:22.564Z,-23270.03
2022-11-12T05:25:25.197Z,-23269.25
2022-11-12T05:27:27.898Z,-23270.03
2022-11-12T05:29:30.566Z,-23266.88
2022-11-12T05:31:33.289Z,-23269.41
2022-11-12T05:33:35.889Z,-23267.66
2022-11-12T05:35:38.509Z,-23277.53
2022-11-12T05:37:42.443Z,-23270.69
2022-11-12T05:39:45.105Z,-23264.31
2022-11-12T05:42:11.204Z,-23264.31
2022-11-12T05:44:11.486Z,-23259.84
2022-11-12T05:46:14.076Z,-23257.63
2022-11-12T05:48:21.511Z,-23256.66
2022-11-12T05:50:34.911Z,-23255.53
2022-11-12T05:52:43.671Z,-23254.59
2022-11-12T05:54:46.336Z,-23256.66
2022-11-12T05:56:49.133Z,-23258.25
2022-11-12T05:58:51.723Z,-23259.84
2022-11-12T06:00:54.359Z,-23264.63
2022-11-12T06:02:58.430Z,-23265.59
2022-11-12T06:05:01.158Z,-23261.13
2022-11-12T06:07:04.149Z,-23260.00
2022-11-12T06:09:09.051Z,-23255.88
2022-11-12T06:11:11.746Z,-23251.88
2022-11-12T06:13:14.358Z,-23249.16
2022-11-12T06:15:17.311Z,-23247.25
2022-11-12T06:17:19.905Z,-23248.53
2022-11-12T06:19:22.530Z,-23248.03
2022-11-12T06:21:27.493Z,-23245.81
2022-11-12T06:23:30.058Z,-23246.44
2022-11-12T06:25:34.206Z,-23244.53
2022-11-12T06:27:37.069Z,-23245.19
2022-11-12T06:29:39.631Z,-23244.84
2022-11-12T06:31:42.306Z,-23246.59
2022-11-12T06:33:45.691Z,-23248.03
2022-11-12T06:35:48.465Z,-23245.00
2022-11-12T06:37:51.083Z,-23245.50
2022-11-12T06:39:53.706Z,-23243.75
2022-11-12T06:41:57.691Z,-23242.47
2022-11-12T06:44:00.313Z,-23243.56
2022-11-12T06:46:03.671Z,-23248.38
2022-11-12T06:48:06.385Z,-23249.00
2022-11-12T06:50:09.646Z,-23252.19
2022-11-12T06:52:16.425Z,-23256.97
2022-11-12T06:54:19.447Z,-23249.16
2022-11-12T06:56:22.055Z,-23252.19
2022-11-12T06:58:26.276Z,-23254.09
2022-11-12T07:00:29.164Z,-23258.25
2022-11-12T07:02:31.809Z,-23256.34
2022-11-12T07:04:34.414Z,-23252.03
2022-11-12T07:06:38.054Z,-23257.28
2022-11-12T07:08:40.969Z,-23261.75
2022-11-12T07:10:43.583Z,-23253.16
2022-11-12T07:12:52.010Z,-23258.72
2022-11-12T07:14:57.255Z,-23261.75
2022-11-12T07:16:59.930Z,-23262.72
2022-11-12T07:19:02.660Z,-23265.09
2022-11-12T07:21:07.586Z,-23267.81
2022-11-12T07:23:10.258Z,-23265.25
2022-11-12T07:25:12.879Z,-23268.94
2022-11-12T07:27:15.655Z,-23274.81
2022-11-12T07:29:35.695Z,-23266.53
2022-11-12T07:31:42.433Z,-23268.78
2022-11-12T07:33:46.007Z,-23267.19
2022-11-12T07:35:48.600Z,-23268.44
2022-11-12T07:37:52.870Z,-23272.13
2022-11-12T07:39:57.325Z,-23265.59
2022-11-12T07:42:00.058Z,-23260.66
2022-11-12T07:44:02.837Z,-23260.81
2022-11-12T07:46:10.810Z,-23261.75
2022-11-12T07:48:15.187Z,-23257.94
2022-11-12T07:50:18.020Z,-23259.38
2022-11-12T07:52:20.618Z,-23258.88
2022-11-12T07:54:23.236Z,-23260.47
2022-11-12T07:56:27.113Z,-23264.31
2022-11-12T07:58:32.649Z,-23269.56
2022-11-12T08:00:35.459Z,-23278.03
2022-11-12T08:02:38.036Z,-23280.88
2022-11-12T08:04:41.990Z,-23268.94
2022-11-12T08:06:44.657Z,-23267.34
2022-11-12T08:08:47.443Z,-23268.63
2022-11-12T08:10:54.530Z,-23269.25
2022-11-12T08:12:57.295Z,-23267.50
2022-11-12T08:14:59.899Z,-23269.88
2022-11-12T08:17:02.503Z,-23270.69
2022-11-12T08:19:05.139Z,-23278.97
2022-11-12T08:21:12.732Z,-23280.25
2022-11-12T08:23:15.389Z,-23278.66
2022-11-12T08:25:18.949Z,-23279.94
2022-11-12T08:27:21.530Z,-23290.44
2022-11-12T08:29:24.246Z,-23304.47
2022-11-12T08:31:26.885Z,-23307.66
2022-11-12T08:33:29.486Z,-23313.22
2022-11-12T08:35:33.518Z,-23311.47
2022-11-12T08:37:37.573Z,-23298.41
2022-11-12T08:39:40.299Z,-23298.88
2022-11-12T08:41:42.999Z,-23307.66
2022-11-12T08:43:45.659Z,-23304.31
2022-11-12T08:45:50.000Z,-23296.97
2022-11-12T08:47:52.761Z,-23297.63
2022-11-12T08:49:55.509Z,-23308.44
2022-11-12T08:51:58.688Z,-23321.97
2022-11-12T08:54:02.874Z,-23333.44
2022-11-12T08:56:05.734Z,-23345.84
2022-11-12T08:58:10.357Z,-23352.53
2022-11-12T09:00:14.518Z,-23372.91
2022-11-12T09:02:17.163Z,-23382.44
2022-11-12T09:04:19.799Z,-23365.91
2022-11-12T09:06:22.432Z,-23373.38
2022-11-12T09:08:26.659Z,-23376.41
2022-11-12T09:10:30.983Z,-23374.50
2022-11-12T09:12:34.474Z,-23381.47
2022-11-12T09:14:37.155Z,-23372.56
2022-11-12T09:16:39.846Z,-23378.13
2022-11-12T09:18:42.502Z,-23379.72
2022-11-12T09:20:45.537Z,-23394.66
2022-11-12T09:22:48.282Z,-23407.38
2022-11-12T09:24:50.897Z,-23410.56
2022-11-12T09:26:55.150Z,-23401.03
2022-11-12T09:28:57.764Z,-23432.94
2022-11-12T09:31:02.411Z,-23435.16
2022-11-12T09:33:05.400Z,-23451.19
2022-11-12T09:35:08.812Z,-23462.78
2022-11-12T09:37:11.513Z,-23470.69
2022-11-12T09:39:14.150Z,-23463.41
2022-11-12T09:41:26.635Z,-23464.38
2022-11-12T09:43:34.536Z,-23418.66
2022-11-12T09:45:38.151Z,-23440.88
2022-11-12T09:47:44.885Z,-23419.44
2022-11-12T09:49:50.974Z,-23405.94
2022-11-12T09:51:57.384Z,-23436.44
2022-11-12T09:54:02.664Z,-23420.88
2022-11-12T09:56:08.195Z,-23435.16
2022-11-12T09:58:12.371Z,-23418.34
2022-11-12T10:00:19.445Z,-23408.81
2022-11-12T10:02:28.822Z,-23415.47
2022-11-12T10:04:48.037Z,-23427.06
2022-11-12T10:07:05.406Z,-23408.00
2022-11-12T10:09:14.884Z,-23408.00
2022-11-12T10:12:12.830Z,-23391.16
2022-11-12T10:14:29.518Z,-23408.97
2022-11-12T10:16:56.483Z,-23428.19
2022-11-12T10:19:39.122Z,-23434.22
2022-11-12T10:21:48.911Z,-23426.28
2022-11-12T10:23:54.429Z,-23438.34
2022-11-12T10:26:00.719Z,-23443.09
2022-11-12T10:28:17.760Z,-23414.69
2022-11-12T10:30:22.201Z,-23429.44
2022-11-12T10:32:26.187Z,-23444.22
2022-11-12T10:34:31.100Z,-23449.13
2022-11-12T10:36:37.326Z,-23429.44
2022-11-12T10:38:43.894Z,-23439.78
2022-11-12T10:40:46.584Z,-23454.69
2022-11-12T10:43:00.355Z,-23482.28
2022-11-12T10:45:20.445Z,-23479.59
2022-11-12T10:47:31.524Z,-23493.69
2022-11-12T10:49:34.145Z,-23487.19
2022-11-12T10:51:38.931Z,-23488.94
2022-11-12T10:53:41.608Z,-23484.97
2022-11-12T10:55:56.902Z,-23480.84
2022-11-12T10:58:19.540Z,-23466.91
2022-11-12T11:00:23.218Z,-23473.88
2022-11-12T11:02:26.065Z,-23477.38
2022-11-12T11:04:35.815Z,-23472.13
2022-11-12T11:06:38.508Z,-23473.88
2022-11-12T11:08:43.183Z,-23468.97
2022-11-12T11:10:45.798Z,-23504.63
2022-11-12T11:12:48.421Z,-23517.94
2022-11-12T11:15:08.336Z,-23488.00
2022-11-12T11:17:17.746Z,-23494.97
2022-11-12T11:19:21.354Z,-23507.47
2022-11-12T11:21:41.833Z,-23506.53
2022-11-12T11:23:51.910Z,-23501.28
2022-11-12T11:25:58.664Z,-23505.91
2022-11-12T11:28:12.871Z,-23496.38
2022-11-12T11:30:20.119Z,-23502.09
2022-11-12T11:32:50.093Z,-23496.06
2022-11-12T11:35:06.184Z,-23499.56
2022-11-12T11:37:29.189Z,-23506.53
2022-11-12T11:39:42.712Z,-23517.13
2022-11-12T11:42:10.019Z,-23511.13
2022-11-12T11:44:26.755Z,-23517.28
2022-11-12T11:46:44.339Z,-23503.03
2022-11-12T11:48:55.361Z,-23505.56
2022-11-12T11:51:03.559Z,-23503.84
2022-11-12T11:53:22.121Z,-23497.19
2022-11-12T11:55:36.022Z,-23500.19
2022-11-12T11:57:49.851Z,-23505.25
2022-11-12T12:00:05.690Z,-23501.13
2022-11-12T12:02:33.772Z,-23496.38
2022-11-12T12:04:46.459Z,-23511.91
2022-11-12T12:06:58.592Z,-23499.88
2022-11-12T12:09:16.660Z,-23512.22
2022-11-12T12:11:25.335Z,-23523.47
2022-11-12T12:13:39.516Z,-23518.56
2022-11-12T12:16:06.907Z,-23516.50
2022-11-12T12:18:21.169Z,-23515.41
2022-11-12T12:20:33.806Z,-23523.94
2022-11-12T12:22:41.787Z,-23524.09
2022-11-12T12:24:51.187Z,-23519.03
2022-11-12T12:26:57.288Z,-23529.97
2022-11-12T12:29:06.313Z,-23537.88
2022-11-12T12:31:16.218Z,-23533.44
2022-11-12T12:33:36.416Z,-23564.13
2022-11-12T12:35:45.465Z,-23555.28
2022-11-12T12:37:56.388Z,-23570.47
2022-11-12T12:40:09.572Z,-23555.13
2022-11-12T12:42:18.301Z,-23566.34
2022-11-12T12:44:21.074Z,-23581.22
2022-11-12T12:46:26.778Z,-23556.72
2022-11-12T12:48:33.530Z,-23546.91
2022-11-12T12:50:39.251Z,-23523.00
2022-11-12T12:53:02.265Z,-23552.13
2022-11-12T12:55:07.413Z,-23536.59
2022-11-12T12:57:35.304Z,-23526.47
2022-11-12T12:59:37.905Z,-23531.38
2022-11-12T13:01:40.591Z,-23523.00
2022-11-12T13:03:51.769Z,-23526.16
2022-11-12T13:06:08.124Z,-23527.44
2022-11-12T13:08:13.396Z,-23532.81
2022-11-12T13:10:46.789Z,-23531.84
2022-11-12T13:13:27.679Z,-23529.00
2022-11-12T13:15:45.369Z,-23531.84
2022-11-12T13:17:51.074Z,-23520.16
2022-11-12T13:20:32.301Z,-23527.13
2022-11-12T13:22:49.107Z,-23537.25
2022-11-12T13:25:06.889Z,-23547.38
2022-11-12T13:27:10.891Z,-23526.16
2022-11-12T13:29:38.172Z,-23531.53
2022-11-12T13:31:40.817Z,-23536.59
2022-11-12T13:33:43.569Z,-23543.75
2022-11-12T13:35:46.186Z,-23530.13
2022-11-12T13:37:50.973Z,-23532.97
2022-11-12T13:39:53.626Z,-23538.84
2022-11-12T13:42:16.375Z,-23530.75
2022-11-12T13:44:20.536Z,-23528.38
2022-11-12T13:46:30.114Z,-23522.69
2022-11-12T13:48:37.761Z,-23520.47
2022-11-12T13:50:42.272Z,-23529.34
2022-11-12T13:52:46.206Z,-23522.38
2022-11-12T13:54:48.858Z,-23517.63
2022-11-12T13:56:51.526Z,-23525.84
2022-11-12T13:58:54.143Z,-23523.78
2022-11-12T14:01:01.196Z,-23516.50
2022-11-12T14:03:07.306Z,-23523.16
2022-11-12T14:05:18.591Z,-23511.91
2022-11-12T14:07:41.439Z,-23518.09
2022-11-12T14:09:57.998Z,-23523.94
2022-11-12T14:12:16.685Z,-23516.03
2022-11-12T14:14:30.576Z,-23515.72
2022-11-12T14:16:45.771Z,-23511.91
2022-11-12T14:19:21.882Z,-23510.00
2022-11-12T14:21:24.566Z,-23509.38
2022-11-12T14:23:27.588Z,-23507.94
2022-11-12T14:25:30.383Z,-23508.91
2022-11-12T14:27:36.428Z,-23507.16
2022-11-12T14:29:43.514Z,-23505.41
2022-11-12T14:31:48.074Z,-23509.38
2022-11-12T14:33:50.670Z,-23508.44
2022-11-12T14:35:54.879Z,-23505.25
2022-11-12T14:38:03.651Z,-23502.41
2022-11-12T14:40:16.642Z,-23500.81
2022-11-12T14:42:19.252Z,-23502.41
2022-11-12T14:44:23.901Z,-23500.50
2022-11-12T14:46:29.788Z,-23502.56
2022-11-12T14:48:45.113Z,-23498.59
2022-11-12T14:50:51.126Z,-23494.00
2022-11-12T14:52:58.872Z,-23492.09
2022-11-12T14:55:10.005Z,-23492.91
2022-11-12T14:57:20.093Z,-23491.31
2022-11-12T14:59:23.097Z,-23491.78
2022-11-12T15:02:13.884Z,-23490.38
2022-11-12T15:03:52.344Z,-23492.25
2022-11-12T15:06:08.203Z,-23495.91
2022-11-12T15:08:12.711Z,-23492.09
2022-11-12T15:10:33.359Z,-23488.16
2022-11-12T15:12:36.215Z,-23488.78
2022-11-12T15:14:39.068Z,-23482.44
2022-11-12T15:16:44.292Z,-23482.59
2022-11-12T15:19:03.421Z,-23480.53
2022-11-12T15:21:14.387Z,-23479.25
2022-11-12T15:23:19.292Z,-23480.53
2022-11-12T15:25:24.281Z,-23479.44
2022-11-12T15:27:36.986Z,-23478.94
2022-11-12T15:29:39.595Z,-23476.09
2022-11-12T15:31:46.687Z,-23473.09
2022-11-12T15:33:49.323Z,-23469.28
2022-11-12T15:35:59.705Z,-23466.91
2022-11-12T15:38:04.853Z,-23466.25
2022-11-12T15:40:13.362Z,-23471.03
2022-11-12T15:42:18.468Z,-23466.91
2022-11-12T15:44:21.114Z,-23462.63
2022-11-12T15:46:23.961Z,-23458.34
2022-11-12T15:48:26.625Z,-23460.25
2022-11-12T15:50:32.187Z,-23456.13
2022-11-12T15:52:36.180Z,-23455.63
2022-11-12T15:54:41.196Z,-23455.16
2022-11-12T15:56:44.604Z,-23452.00
2022-11-12T15:58:47.408Z,-23449.59
2022-11-12T16:00:50.259Z,-23448.34
2022-11-12T16:02:57.474Z,-23447.88
2022-11-12T16:05:00.285Z,-23447.88
2022-11-12T16:07:05.729Z,-23444.06
2022-11-12T16:09:09.862Z,-23444.38
2022-11-12T16:11:27.899Z,-23441.53
2022-11-12T16:13:33.143Z,-23439.59
2022-11-12T16:15:35.883Z,-23438.34
2022-11-12T16:17:38.607Z,-23437.88
2022-11-12T16:19:41.314Z,-23432.63
2022-11-12T16:21:44.101Z,-23431.19
2022-11-12T16:23:46.750Z,-23431.69
2022-11-12T16:25:50.871Z,-23430.88
2022-11-12T16:27:55.981Z,-23429.13
2022-11-12T16:29:58.842Z,-23428.81
2022-11-12T16:32:01.540Z,-23425.47
2022-11-12T16:34:04.103Z,-23425.63
2022-11-12T16:36:14.609Z,-23423.25
2022-11-12T16:38:19.303Z,-23422.47
2022-11-12T16:40:24.148Z,-23419.13
2022-11-12T16:42:28.371Z,-23418.97
2022-11-12T16:44:31.087Z,-23420.72
2022-11-12T16:46:39.321Z,-23423.25
2022-11-12T16:48:42.312Z,-23418.97
2022-11-12T16:50:45.522Z,-23413.41
2022-11-12T16:52:48.613Z,-23411.34
2022-11-12T16:54:51.396Z,-23412.31
2022-11-12T16:56:54.286Z,-23411.97
2022-11-12T16:58:58.503Z,-23407.06
2022-11-12T17:01:01.283Z,-23413.25
2022-11-12T17:03:04.389Z,-23408.16
2022-11-12T17:05:11.195Z,-23406.28
2022-11-12T17:07:13.787Z,-23408.81
2022-11-12T17:09:17.935Z,-23412.31
2022-11-12T17:11:21.174Z,-23413.25
2022-11-12T17:13:23.885Z,-23413.25
2022-11-12T17:15:27.941Z,-23412.63
2022-11-12T17:17:30.767Z,-23412.13
2022-11-12T17:19:33.443Z,-23413.25
2022-11-12T17:21:36.220Z,-23412.63
2022-11-12T17:23:40.239Z,-23410.88
2022-11-12T17:25:43.145Z,-23409.13
2022-11-12T17:27:45.960Z,-23407.22
2022-11-12T17:29:48.796Z,-23407.69
2022-11-12T17:31:53.010Z,-23404.69
2022-11-12T17:33:55.940Z,-23404.03
2022-11-12T17:36:02.856Z,-23402.13
2022-11-12T17:38:05.668Z,-23403.72
2022-11-12T17:40:09.826Z,-23402.28
2022-11-12T17:42:12.673Z,-23403.41
2022-11-12T17:44:17.691Z,-23400.38
2022-11-12T17:46:20.403Z,-23397.22
2022-11-12T17:48:25.664Z,-23401.50
2022-11-12T17:50:28.283Z,-23400.38
2022-11-12T17:52:30.897Z,-23399.75
2022-11-12T17:54:34.416Z,-23398.31
2022-11-12T17:56:37.376Z,-23397.06
2022-11-12T17:58:40.366Z,-23396.41
2022-11-12T18:00:43.098Z,-23398.66
2022-11-12T18:02:45.730Z,-23394.81
2022-11-12T18:04:49.730Z,-23393.56
2022-11-12T18:06:52.350Z,-23391.97
2022-11-12T18:08:56.158Z,-23391.50
2022-11-12T18:10:59.060Z,-23389.91
2022-11-12T18:13:02.877Z,-23387.84
2022-11-12T18:15:06.308Z,-23390.22
2022-11-12T18:17:08.981Z,-23387.84
2022-11-12T18:19:12.460Z,-23386.09
2022-11-12T18:21:16.916Z,-23384.50
2022-11-12T18:23:19.513Z,-23384.03
2022-11-12T18:25:22.142Z,-23382.13
2022-11-12T18:27:24.827Z,-23381.47
2022-11-12T18:29:27.486Z,-23381.31
2022-11-12T18:31:31.554Z,-23379.41
2022-11-12T18:33:36.006Z,-23380.53
2022-11-12T18:35:38.625Z,-23381.97
2022-11-12T18:37:42.588Z,-23379.09
2022-11-12T18:39:45.198Z,-23375.75
2022-11-12T18:41:47.806Z,-23375.59
2022-11-12T18:43:50.414Z,-23377.34
2022-11-12T18:45:55.432Z,-23376.41
2022-11-12T18:47:58.065Z,-23375.44
2022-11-12T18:50:05.459Z,-23374.50
2022-11-12T18:52:10.969Z,-23376.22
2022-11-12T18:54:16.117Z,-23380.84
2022-11-12T18:56:20.864Z,-23386.56
2022-11-12T18:58:23.541Z,-23385.94
2022-11-12T19:00:26.146Z,-23384.81
2022-11-12T19:02:28.759Z,-23384.50
2022-11-12T19:04:31.983Z,-23381.16
2022-11-12T19:06:34.601Z,-23380.84
2022-11-12T19:08:37.177Z,-23378.94
2022-11-12T19:10:41.233Z,-23377.50
2022-11-12T19:12:43.869Z,-23375.44
2022-11-12T19:14:46.463Z,-23373.69
2022-11-12T19:16:49.151Z,-23371.94
2022-11-12T19:18:52.390Z,-23372.56
2022-11-12T19:21:01.496Z,-23377.34
2022-11-12T19:23:04.112Z,-23379.72
2022-11-12T19:25:07.603Z,-23380.06
2022-11-12T19:27:11.645Z,-23385.59
2022-11-12T19:29:14.324Z,-23388.78
2022-11-12T19:31:19.186Z,-23386.56
2022-11-12T19:33:21.929Z,-23384.97
2022-11-12T19:35:24.609Z,-23381.00
2022-11-12T19:37:33.522Z,-23379.25
2022-11-12T19:39:36.383Z,-23377.66
2022-11-12T19:41:39.019Z,-23376.22
2022-11-12T19:43:43.463Z,-23373.84
2022-11-12T19:45:46.111Z,-23372.25
2022-11-12T19:47:50.732Z,-23373.22
2022-11-12T19:49:53.441Z,-23372.09
2022-11-12T19:51:56.079Z,-23373.53
2022-11-12T19:53:58.712Z,-23374.31
2022-11-12T19:56:01.423Z,-23376.72
2022-11-12T19:58:04.147Z,-23376.06
2022-11-12T20:00:10.767Z,-23383.38
2022-11-12T20:02:13.980Z,-23377.34
2022-11-12T20:04:20.166Z,-23374.16
2022-11-12T20:06:29.265Z,-23374.00
2022-11-12T20:08:32.288Z,-23368.59
2022-11-12T20:10:34.962Z,-23366.69
2022-11-12T20:12:39.954Z,-23364.78
2022-11-12T20:14:42.570Z,-23362.25
2022-11-12T20:16:46.534Z,-23360.97
2022-11-12T20:18:51.190Z,-23357.63
2022-11-12T20:20:56.090Z,-23357.94
2022-11-12T20:22:58.735Z,-23357.47
2022-11-12T20:25:01.699Z,-23356.34
2022-11-12T20:27:05.628Z,-23356.50
2022-11-12T20:29:08.359Z,-23356.19
2022-11-12T20:31:13.174Z,-23354.75
2022-11-12T20:33:17.150Z,-23353.50
2022-11-12T20:35:22.430Z,-23354.44
2022-11-12T20:37:25.707Z,-23350.94
2022-11-12T20:39:28.317Z,-23357.78
2022-11-12T20:41:31.345Z,-23355.72
2022-11-12T20:43:34.734Z,-23358.25
2022-11-12T20:45:37.387Z,-23359.22
2022-11-12T20:47:40.039Z,-23359.84
2022-11-12T20:49:44.005Z,-23356.84
2022-11-12T20:51:46.626Z,-23360.81
2022-11-12T20:53:52.369Z,-23357.94
2022-11-12T20:56:05.794Z,-23357.00
2022-11-12T20:58:08.568Z,-23355.25
2022-11-12T21:00:14.322Z,-23355.41
2022-11-12T21:02:17.814Z,-23354.44
2022-11-12T21:04:20.435Z,-23354.13
2022-11-12T21:06:26.293Z,-23356.34
2022-11-12T21:08:30.294Z,-23359.53
2022-11-12T21:10:33.202Z,-23360.81
2022-11-12T21:12:35.858Z,-23354.13
2022-11-12T21:14:38.727Z,-23352.84
2022-11-12T21:16:41.639Z,-23353.19
2022-11-12T21:18:44.488Z,-23354.28
2022-11-12T21:20:47.947Z,-23351.41
2022-11-12T21:22:51.911Z,-23348.72
2022-11-12T21:24:54.610Z,-23349.03
2022-11-12T21:26:57.229Z,-23352.06
2022-11-12T21:28:59.926Z,-23348.72
2022-11-12T21:31:04.870Z,-23347.59
2022-11-12T21:33:07.504Z,-23347.91
2022-11-12T21:35:10.667Z,-23350.31
2022-11-12T21:37:13.322Z,-23351.09
2022-11-12T21:39:17.293Z,-23352.22
2022-11-12T21:41:22.552Z,-23350.31
2022-11-12T21:43:25.335Z,-23348.22
2022-11-12T21:45:27.948Z,-23343.94
2022-11-12T21:47:30.546Z,-23341.41
2022-11-12T21:49:33.259Z,-23342.66
2022-11-12T21:51:35.905Z,-23340.13
2022-11-12T21:53:39.286Z,-23339.00
2022-11-12T21:55:43.330Z,-23337.91
2022-11-12T21:57:45.941Z,-23336.94
2022-11-12T21:59:48.620Z,-23335.66
2022-11-12T22:01:51.288Z,-23333.59
2022-11-12T22:03:55.870Z,-23338.84
2022-11-12T22:05:59.975Z,-23332.66
2022-11-12T22:08:02.718Z,-23332.47
2022-11-12T22:10:06.004Z,-23335.81
2022-11-12T22:12:10.090Z,-23333.59
2022-11-12T22:14:12.750Z,-23340.13
2022-11-12T22:16:17.793Z,-23341.88
2022-11-12T22:18:20.423Z,-23339.81
2022-11-12T22:20:23.062Z,-23338.22
2022-11-12T22:22:26.275Z,-23336.94
2022-11-12T22:24:28.883Z,-23335.03
2022-11-12T22:26:31.890Z,-23333.75
2022-11-12T22:28:36.179Z,-23337.56
2022-11-12T22:30:39.035Z,-23338.22
2022-11-12T22:32:41.636Z,-23331.38
2022-11-12T22:34:49.223Z,-23326.44
2022-11-12T22:36:52.102Z,-23326.44
2022-11-12T22:38:55.931Z,-23327.88
2022-11-12T22:41:02.736Z,-23326.59
2022-11-12T22:43:05.449Z,-23327.72
2022-11-12T22:45:11.108Z,-23327.72
2022-11-12T22:47:13.739Z,-23327.72
2022-11-12T22:49:16.409Z,-23329.31
2022-11-12T22:51:21.407Z,-23328.66
2022-11-12T22:53:24.035Z,-23328.50
2022-11-12T22:55:26.663Z,-23325.81
2022-11-12T22:57:29.272Z,-23332.97
2022-11-12T22:59:31.892Z,-23327.06
2022-11-12T23:01:37.036Z,-23324.53
2022-11-12T23:03:39.726Z,-23323.91
2022-11-12T23:05:42.529Z,-23326.13
2022-11-12T23:07:45.213Z,-23322.94
2022-11-12T23:09:47.819Z,-23324.03
2022-11-12T23:11:50.490Z,-23320.88
2022-11-12T23:13:54.170Z,-23319.75
2022-11-12T23:15:57.846Z,-23322.63
2022-11-12T23:18:01.813Z,-23318.47
2022-11-12T23:20:04.744Z,-23317.53
2022-11-12T23:22:08.311Z,-23317.84
2022-11-12T23:24:10.997Z,-23316.25
2022-11-12T23:26:16.021Z,-23315.59
2022-11-12T23:28:18.614Z,-23310.03
2022-11-12T23:30:21.253Z,-23310.84
2022-11-12T23:32:23.898Z,-23309.72
2022-11-12T23:34:27.871Z,-23311.31
2022-11-12T23:36:31.308Z,-23309.25
2022-11-12T23:38:34.465Z,-23307.00
2022-11-12T23:40:37.185Z,-23305.59
2022-11-12T23:42:39.807Z,-23303.97
2022-11-12T23:44:42.399Z,-23309.88
2022-11-12T23:46:45.010Z,-23308.91
2022-11-12T23:48:48.255Z,-23309.56
2022-11-12T23:51:00.295Z,-23310.50
2022-11-12T23:53:02.978Z,-23310.84
2022-11-12T23:55:06.272Z,-23308.59